Hovedside
METAR-TAF:

METAR-TAF

Lufthavner :

Recife, Pernambuco, Brasil

Guararapes internasjonale lufthavn

breddegrad: 08-08S, lengdegrad: 034-55W, høyde over havet: 19 m

Gjeldene værobservasjon

Denne rapporten ble laget for 36 minutter siden, klokken 14:00 UTC
Vind 11 kt fra Sørøst, skiftende mellom Øst og Sør
Temperatur 29°C
Luftfuktighet 70%
Trykk 1013 hPa
Sikt 10 km eller mer
Få skyer i en høyde av 2500 ft

METAR: SBRF 211400Z 13011KT 100V170 9999 FEW025 29/23 Q1013

Tid: 11:36 (14:36 UTC)

Varsel

Denne rapporten ble laget for 4 timer og 36 minutter siden, klokken 10:00 UTC
Varsel gyldig fra 21. klokken 12 UTC til 22. klokken 12 UTC
Vind 9 kt fra Øst-sørøst
Sikt: 7000 m
Spredte skyer i en høyde av 2200 ft

TAF: SBRF 211000Z 2112/2212 12009KT 7000 SCT022 TX29/2116Z TN25/2208Z RMK PEA

Værobservasjoner og værvarsel for over 4000 flyplasser (METAR- og TAF-rapporter).

Tilgjengelige stasjoner er representert av de røde og gule prikkene på kartet.

Hold musepekeren over prikken for å se navnet på stasjonen.

Klikk så for å se værobservasjoner og -varsler.

For å forandre kartet kan du klikke på den grønne knappen med svart kryss for å zoome inn, på den grønne knappen med strek for å zoome ut, eller på de grønne pilene for å se tilstøtende kart.


METAR-TAF: